Solomon, Kansas
Current Conditions -  °F | °C
As of 6:53 AM on Saturday 25 Oct 2014 (Local Time) from KSLN Reporting Station
Haze Haze  
Wind Chill: 53°   Ceiling: Unl
Heat Index: 53°   Visibility: 3mi
Dew Point: 51°   Wind: 5mph
Humidity: 93%   Direction: 190°S
Pressure: 30.04"   Gusts: NA
Location:  38.92°N, 97.37°W
Report Text: KSLN 251153Z 19004KT 3SM BR FEW002 12/11 A3004 RMK AO2 SLP165 T01170106 10172 20111 53002
Loading
Personal Weather Stations






























Interactive Weather Map
Tropical Storm Tracking
New forecast layout! Learn more

10-Day Weather Forecast

Advertisements
Track Severe Weather on mobile